Time;durP1;ratioP1;P1;durP2;ratioP2;P2;SDS_P1;SDS_P2;PMS_P1;PMS_P2;Temp;Humidity;BMP_temperature;BMP_pressure;BME280_temperature;BME280_humidity;BME280_pressure;Samples;Min_cycle;Max_cycle;Signal;HPM_P1;HPM_P2
2021/12/04 00:00:49;;;;;;;18.98;7.90;;;;;;;;;;4234057;28;20560;-82
2021/12/04 00:02:51;;;;;;;22.10;7.95;;;;;;;;;;4230155;28;20495;-82
2021/12/04 00:04:55;;;;;;;23.98;9.52;;;;;;;;;;4231841;28;20146;-82
2021/12/04 00:06:56;;;;;;;23.38;8.52;;;;;;;;;;4231539;27;20128;-82
2021/12/04 00:09:04;;;;;;;25.58;9.30;;;;;;;;;;4247432;27;20061;-82
2021/12/04 00:11:06;;;;;;;24.45;8.85;;;;;;;;;;4248368;27;20047;-81
2021/12/04 00:13:07;;;;;;;21.80;8.35;;;;;;;;;;4234186;27;20047;-81
2021/12/04 00:15:08;;;;;;;22.48;8.98;;;;;;;;;;4231453;28;20071;-82
2021/12/04 00:17:09;;;;;;;23.13;8.77;;;;;;;;;;4231402;28;20500;-81
2021/12/04 00:19:10;;;;;;;23.10;7.93;;;;;;;;;;4230357;28;20048;-82
2021/12/04 00:21:11;;;;;;;21.98;7.78;;;;;;;;;;4230181;28;20078;-82
2021/12/04 00:23:13;;;;;;;26.13;8.30;;;;;;;;;;4231775;28;20040;-83
2021/12/04 00:25:14;;;;;;;22.13;8.68;;;;;;;;;;4235361;27;20485;-83
2021/12/04 00:27:15;;;;;;;22.52;8.80;;;;;;;;;;4247808;27;20050;-83
2021/12/04 00:29:16;;;;;;;25.08;9.43;;;;;;;;;;4250134;27;20047;-83
2021/12/04 00:31:17;;;;;;;25.38;9.75;;;;;;;;;;4265025;27;20450;-83
2021/12/04 00:33:21;;;;;;;21.38;8.23;;;;;;;;;;4265255;27;20039;-83
2021/12/04 00:35:41;;;;;;;21.92;9.77;;;;;;;;;;4246949;27;20047;-83
2021/12/04 00:51:07;;;;;;;26.02;9.50;;;;;;;;;;4246578;27;20540;-83
2021/12/04 00:53:08;;;;;;;32.35;9.70;;;;;;;;;;4265209;27;20428;-82
2021/12/04 00:55:10;;;;;;;26.05;8.90;;;;;;;;;;4246715;27;20425;-82
2021/12/04 00:57:13;;;;;;;26.95;9.63;;;;;;;;;;4246910;27;20051;-82
2021/12/04 00:59:14;;;;;;;31.00;9.38;;;;;;;;;;4264833;27;20050;-82
2021/12/04 01:01:16;;;;;;;24.90;8.43;;;;;;;;;;4265371;27;20154;-82
2021/12/04 01:03:17;;;;;;;27.85;8.88;;;;;;;;;;4265439;27;20043;-82
2021/12/04 01:05:18;;;;;;;27.48;9.15;;;;;;;;;;4254798;27;20071;-82
2021/12/04 01:07:20;;;;;;;29.23;10.05;;;;;;;;;;4247590;27;20082;-82
2021/12/04 01:09:23;;;;;;;24.13;8.52;;;;;;;;;;4247257;27;20078;-81
2021/12/04 01:11:25;;;;;;;34.15;9.35;;;;;;;;;;4228089;28;20426;-82
2021/12/04 01:13:26;;;;;;;28.75;9.45;;;;;;;;;;4244576;27;20182;-82
2021/12/04 01:15:27;;;;;;;35.47;10.15;;;;;;;;;;4250769;27;20043;-82
2021/12/04 01:17:30;;;;;;;29.08;8.68;;;;;;;;;;4229436;28;20142;-81
2021/12/04 01:19:31;;;;;;;28.20;8.73;;;;;;;;;;4228446;28;20043;-81
2021/12/04 01:21:32;;;;;;;34.85;10.73;;;;;;;;;;4247546;27;20088;-82
2021/12/04 01:23:33;;;;;;;31.40;9.32;;;;;;;;;;4229567;28;20039;-82
2021/12/04 01:25:37;;;;;;;31.33;9.50;;;;;;;;;;4247324;27;20057;-82
2021/12/04 01:27:38;;;;;;;25.92;8.57;;;;;;;;;;4247646;28;20058;-81
2021/12/04 01:29:39;;;;;;;29.63;9.30;;;;;;;;;;4212524;28;20052;-82
2021/12/04 01:31:41;;;;;;;32.60;10.48;;;;;;;;;;4228788;28;20063;-81
2021/12/04 01:33:42;;;;;;;31.45;9.88;;;;;;;;;;4247441;28;20426;-82
2021/12/04 01:35:44;;;;;;;31.08;9.43;;;;;;;;;;4247701;28;20058;-81
2021/12/04 01:37:48;;;;;;;28.35;8.68;;;;;;;;;;4247371;27;20043;-82
2021/12/04 01:39:50;;;;;;;31.88;10.98;;;;;;;;;;4248097;27;20039;-82
2021/12/04 01:41:51;;;;;;;30.38;9.85;;;;;;;;;;4250900;27;20039;-82
2021/12/04 01:43:52;;;;;;;28.45;9.52;;;;;;;;;;4251140;27;20043;-81
2021/12/04 01:45:54;;;;;;;28.95;8.95;;;;;;;;;;4250491;27;20050;-82
2021/12/04 01:47:59;;;;;;;28.48;8.23;;;;;;;;;;4250896;27;20467;-81
2021/12/04 01:50:01;;;;;;;30.92;8.98;;;;;;;;;;4250653;27;20039;-82
2021/12/04 01:52:02;;;;;;;29.73;8.77;;;;;;;;;;4250544;27;20122;-82
2021/12/04 01:54:05;;;;;;;31.98;9.63;;;;;;;;;;4232565;28;20039;-82
2021/12/04 01:56:06;;;;;;;29.00;9.00;;;;;;;;;;4231726;28;20126;-82
2021/12/04 01:58:08;;;;;;;31.63;9.57;;;;;;;;;;4232269;28;20601;-82
2021/12/04 02:00:09;;;;;;;30.65;8.75;;;;;;;;;;4250813;27;20391;-82
2021/12/04 02:02:11;;;;;;;25.52;8.57;;;;;;;;;;4250475;27;20080;-82
2021/12/04 02:04:12;;;;;;;27.25;9.55;;;;;;;;;;4250712;27;20047;-83
2021/12/04 02:06:13;;;;;;;29.70;9.48;;;;;;;;;;4250551;27;20075;-82
2021/12/04 02:08:22;;;;;;;32.10;10.07;;;;;;;;;;4249759;27;20054;-82
2021/12/04 02:10:25;;;;;;;30.10;8.98;;;;;;;;;;4250377;27;20448;-83
2021/12/04 02:12:26;;;;;;;27.88;9.30;;;;;;;;;;4239255;27;20039;-83
2021/12/04 02:14:27;;;;;;;31.05;8.82;;;;;;;;;;4262059;27;20039;-82
2021/12/04 02:16:29;;;;;;;31.00;10.15;;;;;;;;;;4262728;27;20081;-82
2021/12/04 02:18:31;;;;;;;39.58;9.90;;;;;;;;;;4267592;27;20402;-82
2021/12/04 02:20:34;;;;;;;29.63;9.43;;;;;;;;;;4266823;27;20091;-82
2021/12/04 02:22:35;;;;;;;30.38;9.88;;;;;;;;;;4249091;27;20058;-82
2021/12/04 02:24:36;;;;;;;31.75;8.57;;;;;;;;;;4267477;27;20039;-82
2021/12/04 02:26:37;;;;;;;27.77;8.75;;;;;;;;;;4249377;27;20051;-82
2021/12/04 02:28:39;;;;;;;31.75;9.38;;;;;;;;;;4268221;27;20114;-82
2021/12/04 02:30:43;;;;;;;31.85;9.20;;;;;;;;;;4268193;27;20051;-81
2021/12/04 02:32:44;;;;;;;28.55;9.32;;;;;;;;;;4251102;27;20538;-82
2021/12/04 02:34:45;;;;;;;31.73;10.13;;;;;;;;;;4282055;27;20049;-82
2021/12/04 02:36:48;;;;;;;37.00;10.82;;;;;;;;;;4264529;27;20047;-81
2021/12/04 02:38:51;;;;;;;27.52;8.02;;;;;;;;;;4264769;27;20059;-82
2021/12/04 02:40:54;;;;;;;37.03;8.75;;;;;;;;;;4263577;27;20051;-82
2021/12/04 02:42:55;;;;;;;30.92;9.70;;;;;;;;;;4251505;27;20061;-82
2021/12/04 02:44:58;;;;;;;36.25;8.57;;;;;;;;;;4249032;27;20055;-82
2021/12/04 02:47:00;;;;;;;35.45;8.60;;;;;;;;;;4248935;27;20047;-82
2021/12/04 02:49:04;;;;;;;34.58;9.55;;;;;;;;;;4249091;27;20050;-82
2021/12/04 02:51:05;;;;;;;35.35;9.73;;;;;;;;;;4248365;27;20062;-82
2021/12/04 02:53:08;;;;;;;27.45;8.98;;;;;;;;;;4267533;27;20039;-82
2021/12/04 02:55:09;;;;;;;35.80;9.93;;;;;;;;;;4266372;27;20039;-82
2021/12/04 02:57:12;;;;;;;38.30;10.45;;;;;;;;;;4266538;27;20045;-82
2021/12/04 02:59:13;;;;;;;33.33;9.35;;;;;;;;;;4247354;27;20135;-83
2021/12/04 03:01:14;;;;;;;30.77;8.40;;;;;;;;;;4246378;27;20051;-82
2021/12/04 03:03:17;;;;;;;40.92;9.30;;;;;;;;;;4246600;27;20051;-82
2021/12/04 03:05:24;;;;;;;42.47;9.23;;;;;;;;;;4247373;27;20051;-82
2021/12/04 03:07:25;;;;;;;34.97;9.30;;;;;;;;;;4230418;28;20086;-82
2021/12/04 03:09:26;;;;;;;40.45;9.68;;;;;;;;;;4247856;27;20057;-83
2021/12/04 03:11:28;;;;;;;33.63;8.55;;;;;;;;;;4247970;27;20075;-83
2021/12/04 03:13:29;;;;;;;28.67;9.25;;;;;;;;;;4231347;27;20044;-82
2021/12/04 03:15:30;;;;;;;41.58;8.20;;;;;;;;;;4230513;28;20499;-82
2021/12/04 03:17:32;;;;;;;30.33;8.95;;;;;;;;;;4230722;28;20122;-82
2021/12/04 03:19:35;;;;;;;35.08;9.18;;;;;;;;;;4229898;28;20047;-82
2021/12/04 03:21:38;;;;;;;42.13;9.10;;;;;;;;;;4248665;27;20091;-82
2021/12/04 03:23:51;;;;;;;33.58;8.13;;;;;;;;;;4213970;28;20040;-82
2021/12/04 03:25:55;;;;;;;36.60;9.05;;;;;;;;;;4230435;28;20058;-82
2021/12/04 03:27:56;;;;;;;31.60;9.05;;;;;;;;;;4230363;28;20051;-82
2021/12/04 03:30:04;;;;;;;38.75;8.98;;;;;;;;;;4230560;28;20047;-82
2021/12/04 03:41:07;;;;;;;28.67;8.15;;;;;;;;;;4265652;27;20066;-82
2021/12/04 03:43:09;;;;;;;27.45;7.97;;;;;;;;;;4247319;27;20077;-82
2021/12/04 03:45:10;;;;;;;29.33;7.95;;;;;;;;;;4247549;27;20055;-82
2021/12/04 03:47:11;;;;;;;28.05;7.35;;;;;;;;;;4247573;27;20050;-82
2021/12/04 03:49:12;;;;;;;28.52;9.18;;;;;;;;;;4266148;27;20050;-83
2021/12/04 03:51:13;;;;;;;32.05;8.27;;;;;;;;;;4266261;27;20070;-82
2021/12/04 03:53:14;;;;;;;30.52;8.65;;;;;;;;;;4247340;27;20105;-82
2021/12/04 03:55:16;;;;;;;26.33;7.60;;;;;;;;;;4265702;27;20043;-82
2021/12/04 03:57:17;;;;;;;29.02;7.45;;;;;;;;;;4247491;27;20065;-82
2021/12/04 03:59:20;;;;;;;29.80;8.57;;;;;;;;;;4246858;27;20487;-82
2021/12/04 04:01:24;;;;;;;25.13;7.30;;;;;;;;;;4258803;27;20083;-82
2021/12/04 04:03:27;;;;;;;29.63;7.60;;;;;;;;;;4229612;28;20124;-82
2021/12/04 04:05:28;;;;;;;26.80;7.47;;;;;;;;;;4230312;28;20056;-82
2021/12/04 04:07:29;;;;;;;23.13;6.60;;;;;;;;;;4248579;27;20061;-81
2021/12/04 04:09:30;;;;;;;30.00;6.70;;;;;;;;;;4248861;27;20548;-81
2021/12/04 04:11:35;;;;;;;40.15;6.80;;;;;;;;;;4248560;27;20062;-81
2021/12/04 04:13:40;;;;;;;26.05;8.40;;;;;;;;;;4230061;28;20044;-82
2021/12/04 04:15:42;;;;;;;21.13;6.90;;;;;;;;;;4248314;27;20039;-82
2021/12/04 04:17:43;;;;;;;21.52;6.63;;;;;;;;;;4248714;27;20495;-82
2021/12/04 04:19:45;;;;;;;27.50;7.90;;;;;;;;;;4248311;27;20077;-82
2021/12/04 04:21:47;;;;;;;24.90;6.75;;;;;;;;;;4230102;28;20543;-82
2021/12/04 04:23:48;;;;;;;19.33;6.97;;;;;;;;;;4248182;27;20100;-82
2021/12/04 04:25:49;;;;;;;22.63;6.78;;;;;;;;;;4248381;27;20141;-82
2021/12/04 04:27:51;;;;;;;21.20;6.70;;;;;;;;;;4248604;27;20456;-82
2021/12/04 04:29:52;;;;;;;36.38;7.38;;;;;;;;;;4229502;28;20056;-82
2021/12/04 04:31:55;;;;;;;19.33;6.30;;;;;;;;;;4248356;27;20078;-82
2021/12/04 04:34:07;;;;;;;26.73;7.20;;;;;;;;;;4248616;27;20100;-82
2021/12/04 04:38:36;;;;;;;18.90;5.97;;;;;;;;;;4252648;27;20058;-82
2021/12/04 05:13:01;;;;;;;22.35;5.97;;;;;;;;;;4258721;27;20451;-82
2021/12/04 05:15:12;;;;;;;18.02;6.43;;;;;;;;;;4246241;27;20411;-82
2021/12/04 05:17:25;;;;;;;22.60;5.40;;;;;;;;;;4246438;27;20054;-82
2021/12/04 05:19:52;;;;;;;21.58;6.53;;;;;;;;;;4258850;27;20055;-82
2021/12/04 05:21:51;;;;;;;24.65;6.38;;;;;;;;;;4229063;28;20479;-82
2021/12/04 05:23:56;;;;;;;19.38;6.30;;;;;;;;;;4229571;28;20056;-82
2021/12/04 05:25:57;;;;;;;21.67;5.22;;;;;;;;;;4212181;28;20047;-82
2021/12/04 05:27:59;;;;;;;17.92;5.45;;;;;;;;;;4228981;28;20043;-82
2021/12/04 05:30:00;;;;;;;20.58;5.55;;;;;;;;;;4220013;28;20110;-82
2021/12/04 05:32:02;;;;;;;18.02;5.68;;;;;;;;;;4231217;28;20051;-82
2021/12/04 05:34:03;;;;;;;17.17;5.32;;;;;;;;;;4248126;28;20130;-82
2021/12/04 05:36:04;;;;;;;18.77;5.57;;;;;;;;;;4247663;28;20053;-82
2021/12/04 05:38:05;;;;;;;22.67;5.28;;;;;;;;;;4247132;27;20039;-82
2021/12/04 05:40:10;;;;;;;22.67;6.10;;;;;;;;;;4247693;28;20054;-82
2021/12/04 05:42:12;;;;;;;20.85;5.45;;;;;;;;;;4247254;27;20091;-82
2021/12/04 05:44:15;;;;;;;21.88;6.50;;;;;;;;;;4247526;27;20046;-82
2021/12/04 05:46:18;;;;;;;18.95;5.47;;;;;;;;;;4228940;28;20047;-82
2021/12/04 05:48:30;;;;;;;18.50;5.10;;;;;;;;;;4247757;28;20061;-82
2021/12/04 05:57:28;;;;;;;14.13;4.47;;;;;;;;;;4211438;28;20055;-82
2021/12/04 05:59:29;;;;;;;17.02;5.07;;;;;;;;;;4210823;28;20044;-82
2021/12/04 06:01:30;;;;;;;13.82;4.95;;;;;;;;;;4217218;28;20109;-81
2021/12/04 06:03:32;;;;;;;23.92;6.50;;;;;;;;;;4246130;28;20138;-82
2021/12/04 06:05:33;;;;;;;15.07;5.22;;;;;;;;;;4244172;28;20071;-82
2021/12/04 06:07:34;;;;;;;15.07;5.07;;;;;;;;;;4263496;27;20047;-82
2021/12/04 06:09:35;;;;;;;16.75;5.63;;;;;;;;;;4263850;27;20126;-82
2021/12/04 06:11:36;;;;;;;16.95;5.07;;;;;;;;;;4263223;27;20078;-82
2021/12/04 06:13:37;;;;;;;16.30;5.07;;;;;;;;;;4246523;28;20088;-82
2021/12/04 06:15:38;;;;;;;15.32;5.07;;;;;;;;;;4246744;27;20053;-82
2021/12/04 06:17:40;;;;;;;13.98;5.30;;;;;;;;;;4246724;28;20039;-82
2021/12/04 06:24:20;;;;;;;17.98;6.10;;;;;;;;;;4247000;28;20475;-81
2021/12/04 06:26:21;;;;;;;13.82;4.35;;;;;;;;;;4229669;28;20040;-82
2021/12/04 06:28:22;;;;;;;15.80;5.10;;;;;;;;;;4250291;27;20042;-82
2021/12/04 06:30:24;;;;;;;18.27;5.28;;;;;;;;;;4231415;28;20056;-82
2021/12/04 06:32:25;;;;;;;15.85;5.43;;;;;;;;;;4237737;27;20042;-82
2021/12/04 06:34:27;;;;;;;17.27;5.65;;;;;;;;;;4249123;27;20453;-82
2021/12/04 06:36:28;;;;;;;14.30;5.00;;;;;;;;;;4250263;27;20110;-82
2021/12/04 06:38:29;;;;;;;16.40;5.07;;;;;;;;;;4250101;27;20043;-82
2021/12/04 06:40:30;;;;;;;17.85;5.53;;;;;;;;;;4248956;27;20483;-82
2021/12/04 06:42:33;;;;;;;21.27;6.80;;;;;;;;;;4248673;27;20517;-82
2021/12/04 06:44:34;;;;;;;19.92;5.53;;;;;;;;;;4249863;27;20401;-82
2021/12/04 06:46:35;;;;;;;17.10;5.70;;;;;;;;;;4248287;27;20455;-82
2021/12/04 06:48:54;;;;;;;19.70;6.20;;;;;;;;;;4250075;27;20050;-82
2021/12/04 06:55:28;;;;;;;14.25;5.40;;;;;;;;;;4234211;27;20113;-81
2021/12/04 06:57:32;;;;;;;15.60;5.50;;;;;;;;;;4248497;27;20115;-82
2021/12/04 06:59:33;;;;;;;19.42;6.63;;;;;;;;;;4249961;27;20082;-81
2021/12/04 07:01:35;;;;;;;18.23;5.93;;;;;;;;;;4249399;27;20114;-80
2021/12/04 07:03:37;;;;;;;18.05;5.72;;;;;;;;;;4247284;27;20098;-81
2021/12/04 07:05:38;;;;;;;17.25;5.25;;;;;;;;;;4249792;27;20432;-81
2021/12/04 07:07:39;;;;;;;17.65;5.20;;;;;;;;;;4249834;27;20039;-80
2021/12/04 07:09:41;;;;;;;21.60;6.97;;;;;;;;;;4250038;27;20100;-80
2021/12/04 07:11:42;;;;;;;19.08;6.28;;;;;;;;;;4231419;28;20047;-80
2021/12/04 07:13:43;;;;;;;21.00;5.30;;;;;;;;;;4249571;27;20043;-80
2021/12/04 07:15:46;;;;;;;19.15;5.55;;;;;;;;;;4249031;27;20191;-80
2021/12/04 07:17:47;;;;;;;16.73;4.72;;;;;;;;;;4249665;27;20075;-81
2021/12/04 07:19:49;;;;;;;19.42;5.18;;;;;;;;;;4247331;27;20123;-81
2021/12/04 07:21:50;;;;;;;20.73;5.38;;;;;;;;;;4246929;27;20492;-80
2021/12/04 07:23:52;;;;;;;17.70;5.55;;;;;;;;;;4248152;27;20043;-81
2021/12/04 07:25:53;;;;;;;18.45;6.10;;;;;;;;;;4249066;27;20129;-81
2021/12/04 07:27:54;;;;;;;20.10;5.65;;;;;;;;;;4249058;27;20070;-81
2021/12/04 07:29:56;;;;;;;18.73;5.22;;;;;;;;;;4257331;27;20133;-81
2021/12/04 07:31:57;;;;;;;14.70;4.88;;;;;;;;;;4237708;27;20052;-81
2021/12/04 07:33:59;;;;;;;20.17;5.88;;;;;;;;;;4250035;27;20049;-81
2021/12/04 07:36:00;;;;;;;23.33;5.72;;;;;;;;;;4249430;27;20047;-80
2021/12/04 07:38:01;;;;;;;20.08;5.22;;;;;;;;;;4248875;27;20047;-81
2021/12/04 07:40:03;;;;;;;18.20;6.40;;;;;;;;;;4249239;27;20403;-81
2021/12/04 07:42:05;;;;;;;20.08;5.63;;;;;;;;;;4257748;27;20038;-81
2021/12/04 07:44:09;;;;;;;19.55;5.80;;;;;;;;;;4247991;27;20051;-81
2021/12/04 07:46:11;;;;;;;20.15;5.15;;;;;;;;;;4265687;27;20043;-81
2021/12/04 07:48:12;;;;;;;23.25;5.68;;;;;;;;;;4247721;27;20070;-81
2021/12/04 07:50:14;;;;;;;24.38;6.00;;;;;;;;;;4235279;27;20100;-81
2021/12/04 07:52:16;;;;;;;25.13;6.00;;;;;;;;;;4229541;28;20056;-81
2021/12/04 07:54:18;;;;;;;21.00;5.88;;;;;;;;;;4230865;28;20429;-82
2021/12/04 07:56:19;;;;;;;20.98;6.13;;;;;;;;;;4213500;28;20059;-82
2021/12/04 07:58:20;;;;;;;20.60;5.95;;;;;;;;;;4248342;27;20100;-82
2021/12/04 08:00:22;;;;;;;28.33;5.90;;;;;;;;;;4213479;28;20463;-81
2021/12/04 08:02:23;;;;;;;17.77;6.13;;;;;;;;;;4230330;28;20593;-81
2021/12/04 08:04:26;;;;;;;25.15;7.53;;;;;;;;;;4213634;28;20464;-81
2021/12/04 08:06:27;;;;;;;18.55;6.22;;;;;;;;;;4230446;28;20054;-82
2021/12/04 08:08:29;;;;;;;17.73;5.85;;;;;;;;;;4248575;27;20043;-81
2021/12/04 08:10:31;;;;;;;19.08;6.03;;;;;;;;;;4248308;27;20043;-81
2021/12/04 08:12:33;;;;;;;21.70;5.63;;;;;;;;;;4256118;27;20043;-81
2021/12/04 08:14:36;;;;;;;19.88;6.03;;;;;;;;;;4250370;27;20073;-80
2021/12/04 08:16:38;;;;;;;23.70;5.22;;;;;;;;;;4248638;27;20043;-81
2021/12/04 08:18:39;;;;;;;19.20;5.88;;;;;;;;;;4248610;27;20041;-82
2021/12/04 08:20:40;;;;;;;25.33;6.50;;;;;;;;;;4229766;28;20040;-82
2021/12/04 08:22:41;;;;;;;16.88;6.20;;;;;;;;;;4229987;28;20052;-81
2021/12/04 08:24:45;;;;;;;19.27;6.72;;;;;;;;;;4247594;27;20047;-81
2021/12/04 08:26:47;;;;;;;20.95;5.97;;;;;;;;;;4248057;27;20494;-81
2021/12/04 08:28:48;;;;;;;24.17;6.05;;;;;;;;;;4213028;28;20044;-82
2021/12/04 08:30:50;;;;;;;16.67;5.53;;;;;;;;;;4212503;28;20052;-81
2021/12/04 08:32:54;;;;;;;26.42;6.28;;;;;;;;;;4229531;28;20107;-81
2021/12/04 08:34:56;;;;;;;21.80;6.90;;;;;;;;;;4212574;27;20071;-81
2021/12/04 08:36:59;;;;;;;21.45;5.60;;;;;;;;;;4249117;27;20047;-81
2021/12/04 08:39:00;;;;;;;21.48;5.72;;;;;;;;;;4264655;27;20042;-81
2021/12/04 08:41:02;;;;;;;19.50;5.80;;;;;;;;;;4265158;27;20049;-82
2021/12/04 08:43:04;;;;;;;20.67;5.03;;;;;;;;;;4265278;27;20487;-81
2021/12/04 08:45:06;;;;;;;15.48;5.38;;;;;;;;;;4265308;27;20038;-81
2021/12/04 08:47:07;;;;;;;17.73;5.55;;;;;;;;;;4264919;27;20117;-81
2021/12/04 08:49:08;;;;;;;15.07;5.22;;;;;;;;;;4229381;28;20079;-81
2021/12/04 08:51:09;;;;;;;17.00;6.07;;;;;;;;;;4230001;28;20090;-81
2021/12/04 08:53:11;;;;;;;16.65;5.30;;;;;;;;;;4246667;27;20118;-81
2021/12/04 08:55:14;;;;;;;16.88;6.28;;;;;;;;;;4246439;27;20059;-81
2021/12/04 08:57:15;;;;;;;18.23;5.25;;;;;;;;;;4246813;27;20130;-81
2021/12/04 08:59:16;;;;;;;15.25;5.05;;;;;;;;;;4265369;27;20038;-81
2021/12/04 09:01:25;;;;;;;15.82;5.45;;;;;;;;;;4229671;28;20055;-81
2021/12/04 09:03:35;;;;;;;17.85;4.65;;;;;;;;;;4251195;27;20043;-80
2021/12/04 09:05:37;;;;;;;13.77;5.43;;;;;;;;;;4229165;28;20167;-80
2021/12/04 09:07:40;;;;;;;15.02;5.47;;;;;;;;;;4212678;28;20079;-80
2021/12/04 09:09:41;;;;;;;17.27;5.68;;;;;;;;;;4212728;28;20079;-81
2021/12/04 09:11:47;;;;;;;18.55;5.25;;;;;;;;;;4248108;27;20088;-80
2021/12/04 09:13:49;;;;;;;14.77;4.63;;;;;;;;;;4229445;28;20551;-80
2021/12/04 09:15:51;;;;;;;15.57;5.00;;;;;;;;;;4229550;28;20081;-81
2021/12/04 09:17:52;;;;;;;13.65;4.78;;;;;;;;;;4248026;27;20498;-80
2021/12/04 09:19:54;;;;;;;11.80;4.28;;;;;;;;;;4247330;27;20047;-81
2021/12/04 09:21:57;;;;;;;14.68;4.65;;;;;;;;;;4247974;27;20046;-81
2021/12/04 09:24:24;;;;;;;14.70;4.93;;;;;;;;;;4248116;27;20043;-81
2021/12/04 10:01:17;;;;;;;9.88;3.97;;;;;;;;;;4230682;28;20070;-81
2021/12/04 10:03:38;;;;;;;9.95;4.13;;;;;;;;;;4233320;28;20511;-81
2021/12/04 10:20:40;;;;;;;10.10;4.00;;;;;;;;;;4236870;27;20051;-82
2021/12/04 10:23:05;;;;;;;10.00;4.25;;;;;;;;;;4240769;27;20046;-81
2021/12/04 10:32:27;;;;;;;11.05;4.25;;;;;;;;;;4219783;28;20054;-81
2021/12/04 10:34:30;;;;;;;9.45;3.67;;;;;;;;;;4216676;28;20048;-81
2021/12/04 10:36:33;;;;;;;10.27;3.72;;;;;;;;;;4216373;28;20101;-81
2021/12/04 10:38:44;;;;;;;8.70;3.65;;;;;;;;;;4217753;28;20396;-80
2021/12/04 10:40:47;;;;;;;9.55;3.65;;;;;;;;;;4216767;28;20051;-82
2021/12/04 10:42:53;;;;;;;9.65;4.20;;;;;;;;;;4215360;28;20530;-82
2021/12/04 10:44:56;;;;;;;8.57;3.78;;;;;;;;;;4232987;28;20039;-82
2021/12/04 10:47:06;;;;;;;11.25;4.18;;;;;;;;;;4231730;28;20538;-82
2021/12/04 10:49:16;;;;;;;10.82;4.45;;;;;;;;;;4230117;28;20047;-82
2021/12/04 10:53:24;;;;;;;9.18;3.75;;;;;;;;;;4214444;28;20048;-82
2021/12/04 10:55:49;;;;;;;10.68;3.97;;;;;;;;;;4214596;28;20047;-82
2021/12/04 10:58:20;;;;;;;11.07;3.95;;;;;;;;;;4215563;28;20119;-82
2021/12/04 11:00:25;;;;;;;9.05;3.80;;;;;;;;;;4215012;28;20052;-82
2021/12/04 11:02:35;;;;;;;9.05;3.78;;;;;;;;;;4229488;28;20118;-82
2021/12/04 11:04:43;;;;;;;7.70;4.40;;;;;;;;;;4232577;28;20087;-82
2021/12/04 11:19:12;;;;;;;8.65;4.07;;;;;;;;;;4214554;28;20048;-81
2021/12/04 11:23:40;;;;;;;9.18;3.53;;;;;;;;;;4214924;28;20052;-81
2021/12/04 11:44:02;;;;;;;9.07;3.40;;;;;;;;;;4247815;27;20047;-81
2021/12/04 11:46:17;;;;;;;9.07;3.85;;;;;;;;;;4247529;27;20055;-81
2021/12/04 11:48:27;;;;;;;12.68;3.47;;;;;;;;;;4265317;27;20050;-81
2021/12/04 11:50:30;;;;;;;6.28;3.22;;;;;;;;;;4266441;27;20038;-81
2021/12/04 11:52:31;;;;;;;10.18;3.78;;;;;;;;;;4266292;27;20039;-81
2021/12/04 11:54:33;;;;;;;8.40;3.78;;;;;;;;;;4266333;27;20087;-81
2021/12/04 11:56:34;;;;;;;10.18;4.22;;;;;;;;;;4247774;27;20135;-81
2021/12/04 11:58:41;;;;;;;11.82;4.38;;;;;;;;;;4266291;27;20043;-81
2021/12/04 12:00:42;;;;;;;8.35;3.53;;;;;;;;;;4247758;27;20104;-81
2021/12/04 12:02:45;;;;;;;8.63;3.50;;;;;;;;;;4248739;27;20039;-81
2021/12/04 12:04:48;;;;;;;9.68;3.83;;;;;;;;;;4248989;27;20047;-81
2021/12/04 12:06:50;;;;;;;8.27;3.60;;;;;;;;;;4230636;28;20047;-81
2021/12/04 12:09:00;;;;;;;7.85;3.47;;;;;;;;;;4249130;27;20043;-81
2021/12/04 12:11:03;;;;;;;11.35;4.32;;;;;;;;;;4230628;28;20043;-81
2021/12/04 12:13:06;;;;;;;8.52;3.75;;;;;;;;;;4251157;27;20464;-81
2021/12/04 12:15:18;;;;;;;11.68;4.13;;;;;;;;;;4230672;28;20468;-81
2021/12/04 12:17:32;;;;;;;11.52;4.47;;;;;;;;;;4247538;27;20058;-81
2021/12/04 12:19:42;;;;;;;10.20;3.85;;;;;;;;;;4240266;27;20082;-81
2021/12/04 12:21:57;;;;;;;8.43;3.35;;;;;;;;;;4230355;28;20043;-81
2021/12/04 12:26:38;;;;;;;11.07;4.13;;;;;;;;;;4248614;27;20492;-81
2021/12/04 12:37:51;;;;;;;12.23;4.10;;;;;;;;;;4248001;27;20074;-81
2021/12/04 12:40:21;;;;;;;9.43;3.83;;;;;;;;;;4248477;27;20075;-81
2021/12/04 12:42:23;;;;;;;12.93;4.40;;;;;;;;;;4209312;28;20051;-81
2021/12/04 12:44:25;;;;;;;9.98;3.60;;;;;;;;;;4248248;27;20467;-81
2021/12/04 12:46:54;;;;;;;10.38;4.20;;;;;;;;;;4248744;27;20113;-81
2021/12/04 12:48:56;;;;;;;11.68;4.00;;;;;;;;;;4227453;28;20491;-81
2021/12/04 12:51:06;;;;;;;12.13;4.47;;;;;;;;;;4248956;27;20104;-81
2021/12/04 12:53:09;;;;;;;13.55;4.53;;;;;;;;;;4248550;27;20059;-81
2021/12/04 12:55:11;;;;;;;15.15;5.10;;;;;;;;;;4247515;27;20122;-81
2021/12/04 12:57:26;;;;;;;14.63;4.68;;;;;;;;;;4248378;27;20109;-81
2021/12/04 13:11:36;;;;;;;12.98;4.50;;;;;;;;;;4229774;28;20393;-81
2021/12/04 13:13:44;;;;;;;13.23;5.45;;;;;;;;;;4265355;27;20114;-81
2021/12/04 13:15:45;;;;;;;12.57;4.60;;;;;;;;;;4265345;27;20042;-81
2021/12/04 13:17:46;;;;;;;12.43;4.22;;;;;;;;;;4264860;27;20491;-81
2021/12/04 13:19:50;;;;;;;14.80;5.25;;;;;;;;;;4237633;27;20050;-81
2021/12/04 13:21:53;;;;;;;15.25;6.18;;;;;;;;;;4229390;28;20043;-81
2021/12/04 13:23:56;;;;;;;14.40;5.57;;;;;;;;;;4248102;27;20039;-81
2021/12/04 13:26:03;;;;;;;19.45;5.35;;;;;;;;;;4247627;27;20047;-81
2021/12/04 13:30:10;;;;;;;13.98;4.78;;;;;;;;;;4247576;27;20051;-81
2021/12/04 13:32:12;;;;;;;14.68;5.55;;;;;;;;;;4229375;28;20059;-81
2021/12/04 13:34:15;;;;;;;13.55;5.78;;;;;;;;;;4229330;28;20036;-81
2021/12/04 13:36:36;;;;;;;19.88;6.95;;;;;;;;;;4253234;27;20043;-81
2021/12/04 13:38:37;;;;;;;17.52;6.85;;;;;;;;;;4253334;27;20110;-81
2021/12/04 13:40:39;;;;;;;16.30;6.20;;;;;;;;;;4253547;27;20126;-81
2021/12/04 13:42:40;;;;;;;17.65;6.53;;;;;;;;;;4253044;27;20085;-81
2021/12/04 13:44:41;;;;;;;15.80;6.22;;;;;;;;;;4235220;27;20495;-81
2021/12/04 13:46:44;;;;;;;18.98;7.22;;;;;;;;;;4234844;28;20129;-81
2021/12/04 13:48:45;;;;;;;15.65;6.75;;;;;;;;;;4253204;27;20043;-81
2021/12/04 13:50:47;;;;;;;20.05;7.78;;;;;;;;;;4252782;27;20126;-82
2021/12/04 13:52:48;;;;;;;17.75;7.05;;;;;;;;;;4253190;27;20082;-82
2021/12/04 13:54:54;;;;;;;24.48;7.57;;;;;;;;;;4262906;27;20197;-82
2021/12/04 13:56:55;;;;;;;16.77;6.32;;;;;;;;;;4260813;27;20046;-81
2021/12/04 13:58:59;;;;;;;19.30;7.60;;;;;;;;;;4235618;28;20048;-81
2021/12/04 14:01:01;;;;;;;18.15;6.85;;;;;;;;;;4255249;27;20047;-81
2021/12/04 14:03:04;;;;;;;21.40;7.43;;;;;;;;;;4270523;27;20553;-82
2021/12/04 14:05:08;;;;;;;22.73;8.07;;;;;;;;;;4252721;27;20443;-81
2021/12/04 14:07:09;;;;;;;18.83;6.47;;;;;;;;;;4267295;27;20043;-82
2021/12/04 14:09:11;;;;;;;23.35;7.63;;;;;;;;;;4235303;28;20551;-81
2021/12/04 14:11:12;;;;;;;20.52;7.10;;;;;;;;;;4218237;28;20131;-82
2021/12/04 14:13:16;;;;;;;19.98;7.22;;;;;;;;;;4255802;27;20039;-82
2021/12/04 14:15:18;;;;;;;19.73;7.65;;;;;;;;;;4234786;28;20050;-81
2021/12/04 14:17:19;;;;;;;26.33;7.95;;;;;;;;;;4253009;27;20077;-81
2021/12/04 14:19:22;;;;;;;23.00;7.97;;;;;;;;;;4234742;27;20058;-81
2021/12/04 14:21:23;;;;;;;21.40;7.10;;;;;;;;;;4252663;27;20414;-81
2021/12/04 14:23:25;;;;;;;20.50;6.72;;;;;;;;;;4234423;28;20043;-81
2021/12/04 14:25:27;;;;;;;20.95;7.13;;;;;;;;;;4253073;27;20043;-81
2021/12/04 14:27:30;;;;;;;22.50;7.57;;;;;;;;;;4234168;28;20111;-81
2021/12/04 14:29:41;;;;;;;20.73;6.82;;;;;;;;;;4234852;28;20051;-81
2021/12/04 14:31:46;;;;;;;24.10;7.57;;;;;;;;;;4269194;27;20047;-80
2021/12/04 14:33:47;;;;;;;26.20;7.88;;;;;;;;;;4254034;27;20078;-81
2021/12/04 14:35:49;;;;;;;21.23;7.30;;;;;;;;;;4253088;27;20043;-81
2021/12/04 14:37:51;;;;;;;25.23;7.47;;;;;;;;;;4259310;27;20111;-81
2021/12/04 14:39:53;;;;;;;26.50;7.85;;;;;;;;;;4234711;28;20108;-81
2021/12/04 14:41:54;;;;;;;26.38;7.60;;;;;;;;;;4217344;28;20135;-81
2021/12/04 14:43:55;;;;;;;25.88;7.75;;;;;;;;;;4252906;27;20035;-80
2021/12/04 14:45:58;;;;;;;25.80;9.05;;;;;;;;;;4252378;27;20039;-81
2021/12/04 14:48:10;;;;;;;31.95;9.48;;;;;;;;;;4231350;28;20456;-81
2021/12/04 14:50:13;;;;;;;27.77;9.40;;;;;;;;;;4261950;27;20058;-81
2021/12/04 14:52:18;;;;;;;27.30;8.57;;;;;;;;;;4248924;27;20050;-82
2021/12/04 14:54:26;;;;;;;27.55;8.75;;;;;;;;;;4231774;28;20043;-81
2021/12/04 14:56:29;;;;;;;33.03;8.40;;;;;;;;;;4266483;27;20126;-81
2021/12/04 14:58:30;;;;;;;27.02;8.55;;;;;;;;;;4266780;27;20276;-81
2021/12/04 15:00:35;;;;;;;32.58;9.05;;;;;;;;;;4267057;27;20146;-81
2021/12/04 15:02:37;;;;;;;27.92;9.43;;;;;;;;;;4250888;27;20060;-82
2021/12/04 15:04:41;;;;;;;34.50;10.48;;;;;;;;;;4250055;27;20041;-81
2021/12/04 15:06:43;;;;;;;29.00;9.18;;;;;;;;;;4231647;28;20449;-81
2021/12/04 15:08:46;;;;;;;27.33;9.60;;;;;;;;;;4249593;27;20039;-81
2021/12/04 15:11:07;;;;;;;34.15;10.52;;;;;;;;;;4249954;27;20072;-81
2021/12/04 15:13:17;;;;;;;30.33;9.05;;;;;;;;;;4249251;27;20035;-82
2021/12/04 15:15:20;;;;;;;35.13;8.77;;;;;;;;;;4250056;27;20043;-81
2021/12/04 15:17:21;;;;;;;26.38;7.60;;;;;;;;;;4231754;28;20495;-81
2021/12/04 15:19:28;;;;;;;30.20;8.50;;;;;;;;;;4249858;27;20062;-81
2021/12/04 15:21:35;;;;;;;26.35;7.50;;;;;;;;;;4231293;28;20462;-81